Decoded Metar for KANK ( in ) (IATA:) | Meteo·Mobile Aviation Weather
aviador You're here:

KANK Decoded Metar

in
Report Time2019-03-20 15:55:00
UTC Time2019-03-20 16:03:37
Flight Rules vfr VFR
WindCalm
Visibility9999 m
Phenomena:N/A
Clouds:N/A
Expected CloudBase > 4,800 ft AGL from Temp-Dew spread
CeilingNone
Temp-1°C
Dew Point-13°C (40% RH)
AAT-4.3°C
QNH1031 hPa
Raw Report
KANK 201555Z AUTO 00000KT 10SM CLR M01/M13 A3045 RMK AO1
T10101130=

Extra information for KANK:More info

Social comments